createdAt,value
2023-03-08T00:02:22.374Z,3.70
2023-03-08T00:04:51.751Z,3.83
2023-03-08T00:07:21.032Z,3.87
2023-03-08T00:09:50.235Z,3.60
2023-03-08T00:12:20.115Z,3.70
2023-03-08T00:14:49.543Z,3.75
2023-03-08T00:17:21.728Z,3.56
2023-03-08T00:19:53.882Z,3.85
2023-03-08T00:22:23.127Z,3.81
2023-03-08T00:24:52.347Z,3.53
2023-03-08T00:27:21.621Z,3.60
2023-03-08T00:29:50.859Z,3.51
2023-03-08T00:32:22.758Z,3.62
2023-03-08T00:34:53.718Z,3.63
2023-03-08T00:37:23.611Z,3.58
2023-03-08T00:39:54.668Z,3.72
2023-03-08T00:42:24.619Z,3.64
2023-03-08T00:44:54.194Z,3.43
2023-03-08T00:47:26.004Z,3.42
2023-03-08T00:49:55.276Z,3.54
2023-03-08T00:52:24.510Z,3.73
2023-03-08T00:54:53.726Z,3.76
2023-03-08T00:57:22.946Z,3.55
2023-03-08T00:59:52.186Z,3.57
2023-03-08T01:02:24.115Z,3.59
2023-03-08T01:04:56.135Z,3.61
2023-03-08T01:07:26.589Z,3.55
2023-03-08T01:09:57.079Z,3.51
2023-03-08T01:12:26.766Z,3.64
2023-03-08T01:14:56.295Z,3.57
2023-03-08T01:17:25.566Z,3.55
2023-03-08T01:19:57.694Z,3.40
2023-03-08T01:22:26.976Z,3.58
2023-03-08T01:24:56.222Z,3.56
2023-03-08T01:27:25.489Z,3.42
2023-03-08T01:29:54.723Z,3.50
2023-03-08T01:32:24.031Z,3.37
2023-03-08T01:34:53.407Z,3.61
2023-03-08T01:37:25.250Z,3.48
2023-03-08T01:39:54.516Z,3.45
2023-03-08T01:42:23.766Z,3.42
2023-03-08T01:44:55.537Z,3.54
2023-03-08T01:47:27.593Z,3.64
2023-03-08T01:50:00.448Z,3.42
2023-03-08T01:52:37.226Z,3.52
2023-03-08T01:55:10.454Z,3.48
2023-03-08T01:57:43.568Z,3.47
2023-03-08T02:00:16.721Z,3.46
2023-03-08T02:02:50.628Z,3.26
2023-03-08T02:05:21.444Z,3.43
2023-03-08T02:07:53.287Z,3.53
2023-03-08T02:10:23.519Z,3.34
2023-03-08T02:12:53.127Z,3.23
2023-03-08T02:15:24.292Z,3.39
2023-03-08T02:17:53.565Z,3.04
2023-03-08T02:20:28.354Z,3.20
2023-03-08T02:23:10.078Z,3.27
2023-03-08T02:25:39.416Z,3.31
2023-03-08T02:28:09.276Z,3.31
2023-03-08T02:30:40.682Z,3.31
2023-03-08T02:33:09.986Z,3.30
2023-03-08T02:35:42.657Z,3.34
2023-03-08T02:38:17.012Z,3.08
2023-03-08T02:40:46.861Z,3.18
2023-03-08T02:43:16.240Z,3.27
2023-03-08T02:45:45.540Z,3.12
2023-03-08T02:48:15.364Z,3.39
2023-03-08T02:50:44.759Z,3.17
2023-03-08T02:53:16.632Z,3.21
2023-03-08T02:55:45.908Z,3.16
2023-03-08T02:58:15.153Z,3.26
2023-03-08T03:00:44.406Z,3.09
2023-03-08T03:03:13.775Z,3.29
2023-03-08T03:05:44.262Z,3.19
2023-03-08T03:08:16.173Z,3.45
2023-03-08T03:10:45.430Z,3.13
2023-03-08T03:13:14.809Z,3.12
2023-03-08T03:15:44.064Z,3.36
2023-03-08T03:18:13.341Z,3.14
2023-03-08T03:20:42.737Z,3.26
2023-03-08T03:23:12.045Z,3.21
2023-03-08T03:25:43.926Z,3.26
2023-03-08T03:28:13.174Z,3.28
2023-03-08T03:30:42.716Z,3.22
2023-03-08T03:33:11.981Z,3.23
2023-03-08T03:35:41.303Z,3.29
2023-03-08T03:38:10.574Z,3.13
2023-03-08T03:40:39.800Z,3.10
2023-03-08T03:43:12.143Z,3.17
2023-03-08T03:45:41.426Z,2.95
2023-03-08T03:48:10.658Z,3.02
2023-03-08T03:50:39.917Z,3.03
2023-03-08T03:53:09.175Z,3.15
2023-03-08T03:55:38.394Z,3.08
2023-03-08T03:58:07.606Z,3.16
2023-03-08T04:00:39.411Z,3.35
2023-03-08T04:03:08.760Z,3.24
2023-03-08T04:05:38.025Z,3.49
2023-03-08T04:08:07.861Z,3.48
2023-03-08T04:10:37.839Z,3.49
2023-03-08T04:13:07.086Z,3.47
2023-03-08T04:15:38.909Z,3.54
2023-03-08T04:18:08.218Z,3.60
2023-03-08T04:20:37.436Z,3.65
2023-03-08T04:23:06.663Z,3.49
2023-03-08T04:25:35.894Z,3.35
2023-03-08T04:28:05.145Z,3.53
2023-03-08T04:30:39.587Z,3.42
2023-03-08T04:33:09.312Z,3.32
2023-03-08T04:35:38.565Z,3.28
2023-03-08T04:38:08.222Z,3.48
2023-03-08T04:40:57.885Z,3.35
2023-03-08T04:43:27.495Z,3.11
2023-03-08T04:45:59.271Z,2.99
2023-03-08T04:48:28.874Z,3.19
2023-03-08T04:51:00.203Z,3.13
2023-03-08T04:53:30.513Z,3.08
2023-03-08T04:56:00.668Z,3.17
2023-03-08T04:58:30.178Z,3.34
2023-03-08T05:01:04.623Z,3.12
2023-03-08T05:03:33.902Z,2.98
2023-03-08T05:06:03.140Z,3.14
2023-03-08T05:08:32.380Z,3.19
2023-03-08T05:11:04.695Z,3.25
2023-03-08T05:13:36.832Z,3.23
2023-03-08T05:16:10.476Z,3.02
2023-03-08T05:18:39.721Z,3.06
2023-03-08T05:21:13.854Z,3.25
2023-03-08T05:23:43.450Z,3.36
2023-03-08T05:26:15.652Z,3.25
2023-03-08T05:28:45.490Z,3.11
2023-03-08T05:31:19.371Z,3.24
2023-03-08T05:33:51.089Z,3.23
2023-03-08T05:36:21.091Z,3.46
2023-03-08T05:38:50.783Z,3.38
2023-03-08T05:41:20.001Z,3.38
2023-03-08T05:43:49.559Z,3.27
2023-03-08T05:46:22.646Z,2.96
2023-03-08T05:48:51.903Z,3.04
2023-03-08T05:51:22.109Z,3.23
2023-03-08T05:53:51.340Z,3.36
2023-03-08T05:56:23.046Z,3.37
2023-03-08T05:58:52.946Z,3.40
2023-03-08T06:01:27.173Z,3.22
2023-03-08T06:03:58.014Z,3.36
2023-03-08T06:06:28.921Z,3.48
2023-03-08T06:08:58.522Z,3.32
2023-03-08T06:11:28.020Z,3.35
2023-03-08T06:13:57.270Z,3.49
2023-03-08T06:16:29.137Z,3.50
2023-03-08T06:18:58.438Z,3.33
2023-03-08T06:21:27.865Z,3.42
2023-03-08T06:23:57.121Z,3.32
2023-03-08T06:26:26.442Z,3.40
2023-03-08T06:28:55.654Z,3.50
2023-03-08T06:31:25.013Z,3.23
2023-03-08T06:33:56.877Z,3.19
2023-03-08T06:36:26.362Z,3.52
2023-03-08T06:38:55.666Z,3.27
2023-03-08T06:41:24.887Z,3.48
2023-03-08T06:43:54.195Z,3.31
2023-03-08T06:46:23.555Z,3.51
2023-03-08T06:48:54.102Z,3.44
2023-03-08T06:51:25.918Z,3.42
2023-03-08T06:53:55.140Z,3.28
2023-03-08T06:56:24.368Z,3.06
2023-03-08T06:58:53.743Z,3.20
2023-03-08T07:01:23.062Z,3.32
2023-03-08T07:03:53.398Z,3.25
2023-03-08T07:06:22.612Z,3.23
2023-03-08T07:08:54.409Z,3.24
2023-03-08T07:11:23.664Z,3.49
2023-03-08T07:13:52.938Z,3.21
2023-03-08T07:16:22.242Z,3.16
2023-03-08T07:18:51.491Z,3.30
2023-03-08T07:21:20.797Z,3.39
2023-03-08T07:23:49.994Z,3.41
2023-03-08T07:26:21.849Z,3.35
2023-03-08T07:28:52.549Z,3.30
2023-03-08T07:31:21.811Z,3.52
2023-03-08T07:33:51.038Z,3.45
2023-03-08T07:36:20.412Z,3.44
2023-03-08T07:38:49.840Z,3.35
2023-03-08T07:41:21.628Z,3.49
2023-03-08T07:43:50.863Z,3.43
2023-03-08T07:46:20.173Z,3.40
2023-03-08T07:48:49.442Z,3.52
2023-03-08T07:51:20.341Z,3.38
2023-03-08T07:53:49.550Z,3.56
2023-03-08T07:56:18.757Z,3.41
2023-03-08T07:58:50.573Z,3.37
2023-03-08T08:01:19.812Z,3.31
2023-03-08T08:03:49.184Z,3.41
2023-03-08T08:06:18.481Z,3.26
2023-03-08T08:08:47.689Z,3.42
2023-03-08T08:11:19.882Z,3.60
2023-03-08T08:13:52.074Z,3.34
2023-03-08T08:16:21.515Z,3.41
2023-03-08T08:18:50.770Z,3.48
2023-03-08T08:21:20.157Z,3.46
2023-03-08T08:23:50.218Z,3.59
2023-03-08T08:26:22.626Z,3.32
2023-03-08T08:28:56.775Z,3.32
2023-03-08T08:31:28.937Z,3.31
2023-03-08T08:33:58.166Z,3.16
2023-03-08T08:36:28.038Z,3.14
2023-03-08T08:38:57.313Z,3.25
2023-03-08T08:41:28.050Z,3.36
2023-03-08T08:44:01.129Z,3.27
2023-03-08T08:46:34.120Z,3.44
2023-03-08T08:49:05.405Z,3.44
2023-03-08T08:51:35.004Z,3.33
2023-03-08T08:54:04.434Z,3.41
2023-03-08T08:56:34.509Z,3.49
2023-03-08T08:59:06.344Z,3.39
2023-03-08T09:01:37.020Z,3.40
2023-03-08T09:04:06.309Z,3.31
2023-03-08T09:06:35.862Z,3.34
2023-03-08T09:09:05.597Z,3.50
2023-03-08T09:11:42.166Z,3.39
2023-03-08T09:14:20.455Z,3.39
2023-03-08T09:16:49.716Z,3.39
2023-03-08T09:19:19.072Z,3.53
2023-03-08T09:21:48.332Z,3.48
2023-03-08T09:24:17.589Z,3.40
2023-03-08T09:26:46.809Z,3.38
2023-03-08T09:29:16.056Z,3.46
2023-03-08T09:31:48.058Z,3.35
2023-03-08T09:34:17.397Z,3.40
2023-03-08T09:36:46.622Z,3.39
2023-03-08T09:39:16.661Z,3.41
2023-03-08T09:41:58.227Z,3.51
2023-03-08T09:44:46.988Z,3.41
2023-03-08T09:47:29.233Z,3.53
2023-03-08T09:50:04.318Z,3.55
2023-03-08T09:52:38.567Z,3.50
2023-03-08T09:55:15.517Z,3.64
2023-03-08T09:57:49.916Z,3.62
2023-03-08T10:00:23.569Z,3.69
2023-03-08T10:03:06.280Z,3.63
2023-03-08T10:05:40.339Z,3.65
2023-03-08T10:08:16.235Z,3.65
2023-03-08T10:10:53.774Z,3.80
2023-03-08T10:13:32.068Z,3.63
2023-03-08T10:16:09.441Z,3.65
2023-03-08T10:18:46.027Z,3.72
2023-03-08T10:21:17.781Z,3.75
2023-03-08T10:23:49.422Z,3.72
2023-03-08T10:26:19.295Z,3.76
2023-03-08T10:28:48.589Z,3.90
2023-03-08T10:31:27.044Z,3.83
2023-03-08T10:34:06.260Z,3.77
2023-03-08T10:36:35.656Z,3.92
2023-03-08T10:39:09.886Z,3.99
2023-03-08T10:41:43.668Z,4.03
2023-03-08T10:44:17.256Z,3.98
2023-03-08T10:46:52.016Z,3.99
2023-03-08T10:49:28.050Z,4.11
2023-03-08T10:51:59.412Z,4.11
2023-03-08T10:54:30.514Z,4.11
2023-03-08T10:57:02.479Z,4.02
2023-03-08T10:59:34.942Z,4.10
2023-03-08T11:02:18.358Z,4.11
2023-03-08T11:04:57.137Z,4.03
2023-03-08T11:07:30.294Z,4.03
2023-03-08T11:10:18.616Z,4.11
2023-03-08T11:12:48.442Z,4.09
2023-03-08T11:15:19.082Z,4.14
2023-03-08T11:17:57.798Z,4.11
2023-03-08T11:20:33.888Z,4.24
2023-03-08T11:23:19.355Z,4.22
2023-03-08T11:25:51.174Z,4.19
2023-03-08T11:28:36.222Z,4.21
2023-03-08T11:31:16.506Z,4.40
2023-03-08T11:33:58.130Z,4.39
2023-03-08T11:36:35.107Z,4.39
2023-03-08T11:39:13.599Z,4.41
2023-03-08T11:41:50.169Z,4.38
2023-03-08T11:44:32.286Z,4.48
2023-03-08T11:47:34.407Z,4.53
2023-03-08T11:50:08.247Z,4.70
2023-03-08T11:52:46.745Z,4.69
2023-03-08T11:55:34.467Z,4.69
2023-03-08T11:58:09.957Z,4.69
2023-03-08T12:00:42.808Z,4.82
2023-03-08T12:03:18.237Z,4.59
2023-03-08T12:05:52.964Z,4.81
2023-03-08T12:08:30.344Z,4.62
2023-03-08T12:11:04.226Z,4.70
2023-03-08T12:13:37.530Z,4.84
2023-03-08T12:16:13.680Z,4.78
2023-03-08T12:18:47.885Z,4.75
2023-03-08T12:21:29.803Z,4.92
2023-03-08T12:24:14.515Z,4.94
2023-03-08T12:26:48.676Z,4.85
2023-03-08T12:29:23.805Z,4.83
2023-03-08T12:31:54.517Z,4.90
2023-03-08T12:34:31.726Z,4.91
2023-03-08T12:37:00.987Z,4.94
2023-03-08T12:39:35.038Z,4.86
2023-03-08T12:42:17.416Z,4.99
2023-03-08T12:44:47.110Z,5.03
2023-03-08T12:47:24.772Z,4.85
2023-03-08T12:49:56.799Z,5.08
2023-03-08T12:52:30.418Z,5.01
2023-03-08T12:55:05.970Z,5.05
2023-03-08T12:57:42.832Z,5.02
2023-03-08T13:00:28.373Z,4.99
2023-03-08T13:03:07.141Z,5.04
2023-03-08T13:05:38.691Z,5.10
2023-03-08T13:08:26.002Z,5.01
2023-03-08T13:11:03.681Z,5.06
2023-03-08T13:13:41.857Z,4.97
2023-03-08T13:16:23.453Z,5.04
2023-03-08T13:19:03.326Z,5.05
2023-03-08T13:21:36.553Z,5.23
2023-03-08T13:24:12.043Z,5.16
2023-03-08T13:27:11.157Z,5.27
2023-03-08T13:29:40.797Z,5.19
2023-03-08T13:32:16.200Z,5.20
2023-03-08T13:34:47.097Z,5.37
2023-03-08T13:37:24.464Z,5.23
2023-03-08T13:39:58.246Z,5.31
2023-03-08T13:42:31.603Z,5.27
2023-03-08T13:45:12.949Z,5.29
2023-03-08T13:47:42.250Z,5.29
2023-03-08T13:50:20.861Z,5.33
2023-03-08T13:52:50.897Z,5.30
2023-03-08T13:55:23.613Z,5.28
2023-03-08T13:57:56.442Z,5.42
2023-03-08T14:00:32.539Z,5.37
2023-03-08T14:03:03.481Z,5.37
2023-03-08T14:05:36.456Z,5.33
2023-03-08T14:08:07.912Z,5.39
2023-03-08T14:10:43.356Z,5.42
2023-03-08T14:13:21.482Z,5.37
2023-03-08T14:15:53.144Z,5.34
2023-03-08T14:18:25.035Z,5.44
2023-03-08T14:21:06.038Z,5.35
2023-03-08T14:23:38.557Z,5.38
2023-03-08T14:26:08.102Z,5.47
2023-03-08T14:28:42.255Z,5.45
2023-03-08T14:31:28.056Z,5.57
2023-03-08T14:34:00.307Z,5.59
2023-03-08T14:36:32.146Z,5.49
2023-03-08T14:39:02.653Z,5.51
2023-03-08T14:41:34.042Z,5.44
2023-03-08T14:44:07.865Z,5.45
2023-03-08T14:46:37.152Z,5.35
2023-03-08T14:49:07.798Z,5.41
2023-03-08T14:51:42.643Z,5.39
2023-03-08T14:54:24.879Z,5.33
2023-03-08T14:56:54.097Z,5.48
2023-03-08T14:59:28.106Z,5.60
2023-03-08T15:01:57.856Z,5.54
2023-03-08T15:04:28.304Z,5.47
2023-03-08T15:06:57.673Z,5.48
2023-03-08T15:09:29.404Z,5.46
2023-03-08T15:12:00.834Z,5.47
2023-03-08T15:14:32.648Z,5.47
2023-03-08T15:17:01.845Z,5.52
2023-03-08T15:19:31.078Z,5.52
2023-03-08T15:22:01.502Z,5.53
2023-03-08T15:24:30.909Z,5.55
2023-03-08T15:27:00.112Z,5.47
2023-03-08T15:29:33.728Z,5.31
2023-03-08T15:32:03.196Z,5.46
2023-03-08T15:34:32.632Z,5.35
2023-03-08T15:37:02.044Z,5.46
2023-03-08T15:39:31.415Z,5.44
2023-03-08T15:42:00.861Z,5.44
2023-03-08T15:44:32.804Z,5.31
2023-03-08T15:47:02.092Z,5.46
2023-03-08T15:49:31.373Z,5.54
2023-03-08T15:52:00.613Z,5.57
2023-03-08T15:54:31.772Z,5.55
2023-03-08T15:57:01.070Z,5.40
2023-03-08T15:59:32.860Z,5.60
2023-03-08T16:02:02.427Z,5.34
2023-03-08T16:04:31.727Z,5.37
2023-03-08T16:07:00.997Z,5.35
2023-03-08T16:09:30.194Z,5.49
2023-03-08T16:11:59.429Z,5.54
2023-03-08T16:14:28.650Z,5.62
2023-03-08T16:17:00.541Z,5.59
2023-03-08T16:19:34.007Z,5.54
2023-03-08T16:22:03.894Z,5.66
2023-03-08T16:24:33.463Z,5.59
2023-03-08T16:27:04.421Z,5.52
2023-03-08T16:29:35.141Z,5.61
2023-03-08T16:32:07.502Z,5.61
2023-03-08T16:34:37.737Z,5.57
2023-03-08T16:37:07.269Z,5.63
2023-03-08T16:39:36.449Z,5.79
2023-03-08T16:42:05.689Z,5.64
2023-03-08T16:44:34.873Z,5.70
2023-03-08T16:47:06.770Z,5.65
2023-03-08T16:49:36.282Z,5.61
2023-03-08T16:52:05.699Z,5.58
2023-03-08T16:54:34.943Z,5.55
2023-03-08T16:57:18.205Z,5.72
2023-03-08T16:59:48.310Z,5.68
2023-03-08T17:02:21.561Z,5.82
2023-03-08T17:04:51.861Z,5.71
2023-03-08T17:07:21.316Z,5.82
2023-03-08T17:09:50.971Z,5.82
2023-03-08T17:12:20.214Z,5.82
2023-03-08T17:14:49.446Z,5.68
2023-03-08T17:17:21.274Z,5.69
2023-03-08T17:19:54.042Z,5.70
2023-03-08T17:22:23.246Z,5.51
2023-03-08T17:24:52.459Z,5.57
2023-03-08T17:27:22.262Z,5.46
2023-03-08T17:29:51.510Z,5.45
2023-03-08T17:32:23.433Z,5.72
2023-03-08T17:34:52.784Z,5.51
2023-03-08T17:37:23.023Z,5.59
2023-03-08T17:39:52.411Z,5.48
2023-03-08T17:42:21.626Z,5.57
2023-03-08T17:44:50.831Z,5.56
2023-03-08T17:47:22.711Z,5.50
2023-03-08T17:49:51.946Z,5.62
2023-03-08T17:52:21.191Z,5.54
2023-03-08T17:54:51.042Z,5.70
2023-03-08T17:57:21.773Z,5.67
2023-03-08T17:59:51.703Z,5.60
2023-03-08T18:02:23.764Z,5.65
2023-03-08T18:04:55.870Z,5.64
2023-03-08T18:07:27.757Z,5.73
2023-03-08T18:09:57.154Z,5.70
2023-03-08T18:12:26.364Z,5.79
2023-03-08T18:14:55.600Z,5.87
2023-03-08T18:17:27.494Z,5.82
2023-03-08T18:19:56.746Z,5.82
2023-03-08T18:22:25.997Z,5.77
2023-03-08T18:24:55.269Z,5.81
2023-03-08T18:27:24.486Z,5.81
2023-03-08T18:29:53.695Z,5.85
2023-03-08T18:32:23.050Z,5.80
2023-03-08T18:34:54.850Z,5.67
2023-03-08T18:37:24.118Z,5.72
2023-03-08T18:39:55.968Z,5.70
2023-03-08T18:42:25.292Z,5.78
2023-03-08T18:44:55.392Z,5.80
2023-03-08T18:47:24.816Z,5.86
2023-03-08T18:49:56.875Z,5.51
2023-03-08T18:52:26.295Z,5.66
2023-03-08T18:54:55.649Z,5.74
2023-03-08T18:57:25.066Z,5.75
2023-03-08T18:59:55.719Z,5.72
2023-03-08T19:02:28.263Z,5.71
2023-03-08T19:05:00.701Z,5.67
2023-03-08T19:07:30.481Z,5.69
2023-03-08T19:10:07.249Z,5.63
2023-03-08T19:12:37.974Z,5.60
2023-03-08T19:15:08.635Z,5.55
2023-03-08T19:17:38.099Z,5.60
2023-03-08T19:20:11.806Z,5.51
2023-03-08T19:22:41.616Z,5.48
2023-03-08T19:25:11.675Z,5.53
2023-03-08T19:27:40.966Z,5.46
2023-03-08T19:30:12.847Z,5.19
2023-03-08T19:32:42.824Z,5.38
2023-03-08T19:35:14.994Z,5.38
2023-03-08T19:37:44.233Z,5.31
2023-03-08T19:40:14.750Z,5.36
2023-03-08T19:42:43.984Z,5.34
2023-03-08T19:45:14.932Z,5.28
2023-03-08T19:47:44.155Z,5.25
2023-03-08T19:50:16.284Z,5.24
2023-03-08T19:52:45.494Z,5.23
2023-03-08T19:55:14.724Z,5.26
2023-03-08T19:57:44.097Z,5.23
2023-03-08T20:00:15.050Z,5.21
2023-03-08T20:02:45.813Z,5.23
2023-03-08T20:05:18.620Z,5.16
2023-03-08T20:07:47.952Z,5.19
2023-03-08T20:10:19.242Z,5.21
2023-03-08T20:12:49.410Z,5.16
2023-03-08T20:15:18.744Z,5.23
2023-03-08T20:17:48.379Z,5.18
2023-03-08T20:20:21.402Z,5.20
2023-03-08T20:22:50.651Z,5.16
2023-03-08T20:25:20.079Z,5.22
2023-03-08T20:27:49.336Z,5.21
2023-03-08T20:30:18.913Z,5.24
2023-03-08T20:32:48.155Z,5.25
2023-03-08T20:35:22.129Z,5.24
2023-03-08T20:37:52.718Z,5.21
2023-03-08T20:40:22.112Z,5.17
2023-03-08T20:42:51.659Z,5.24
2023-03-08T20:45:23.913Z,5.15
2023-03-08T20:47:54.390Z,5.22
2023-03-08T20:50:27.913Z,5.16
2023-03-08T20:52:57.207Z,5.16
2023-03-08T20:55:26.432Z,5.20
2023-03-08T20:57:55.637Z,5.15
2023-03-08T21:00:25.753Z,5.13
2023-03-08T21:02:55.678Z,5.21
2023-03-08T21:05:27.680Z,5.27
2023-03-08T21:07:56.896Z,5.28
2023-03-08T21:10:26.151Z,5.27
2023-03-08T21:12:55.349Z,5.28
2023-03-08T21:15:25.483Z,5.24
2023-03-08T21:17:54.852Z,5.27
2023-03-08T21:20:26.973Z,5.22
2023-03-08T21:22:56.692Z,5.23
2023-03-08T21:25:26.069Z,5.25
2023-03-08T21:27:55.351Z,5.18
2023-03-08T21:30:27.045Z,5.23
2023-03-08T21:32:56.445Z,5.14
2023-03-08T21:35:28.281Z,5.11
2023-03-08T21:37:57.502Z,5.12
2023-03-08T21:40:26.766Z,5.12
2023-03-08T21:42:56.147Z,5.09
2023-03-08T21:45:25.375Z,5.11
2023-03-08T21:47:54.590Z,5.16
2023-03-08T21:50:23.830Z,5.17
2023-03-08T21:52:55.674Z,5.17
2023-03-08T21:55:24.878Z,5.15
2023-03-08T21:57:56.905Z,5.04
2023-03-08T22:00:26.169Z,5.13
2023-03-08T22:02:55.986Z,5.09
2023-03-08T22:05:25.367Z,5.04
2023-03-08T22:07:57.330Z,5.11
2023-03-08T22:10:26.630Z,5.03
2023-03-08T22:12:56.050Z,5.10
2023-03-08T22:15:25.382Z,5.05
2023-03-08T22:17:54.876Z,5.17
2023-03-08T22:20:24.226Z,5.14
2023-03-08T22:22:53.499Z,5.11
2023-03-08T22:25:25.507Z,5.03
2023-03-08T22:27:54.809Z,5.13
2023-03-08T22:30:25.820Z,5.14
2023-03-08T22:32:55.248Z,5.22
2023-03-08T22:35:24.877Z,5.21
2023-03-08T22:37:54.139Z,5.14
2023-03-08T22:40:26.060Z,5.14
2023-03-08T22:42:55.364Z,5.11
2023-03-08T22:45:24.749Z,5.11
2023-03-08T22:47:54.372Z,5.10
2023-03-08T22:50:24.036Z,5.10
2023-03-08T22:52:53.264Z,5.10
2023-03-08T22:55:22.577Z,5.14
2023-03-08T22:57:54.386Z,4.99
2023-03-08T23:00:23.693Z,5.11
2023-03-08T23:02:54.035Z,5.16
2023-03-08T23:05:23.578Z,5.09
2023-03-08T23:07:53.321Z,5.06
2023-03-08T23:10:22.840Z,5.04
2023-03-08T23:12:54.718Z,5.04
2023-03-08T23:15:24.072Z,4.81
2023-03-08T23:17:53.317Z,4.91
2023-03-08T23:20:23.264Z,4.95
2023-03-08T23:22:53.651Z,4.88
2023-03-08T23:25:25.561Z,5.03
2023-03-08T23:27:57.559Z,4.99
2023-03-08T23:30:27.022Z,5.05
2023-03-08T23:32:56.353Z,4.95
2023-03-08T23:35:25.803Z,5.02
2023-03-08T23:37:55.065Z,4.99
2023-03-08T23:40:24.334Z,5.01
2023-03-08T23:42:53.575Z,4.98
2023-03-08T23:45:25.484Z,5.00
2023-03-08T23:47:54.774Z,4.99
2023-03-08T23:50:24.032Z,4.94
2023-03-08T23:52:53.363Z,4.98
2023-03-08T23:55:22.617Z,4.94
2023-03-08T23:57:53.688Z,4.96
